sensor_id;sensor_type;location;lat;lon;timestamp;pressure;altitude;pressure_sealevel;temperature;humidity
70323;BME280;57735;56.264;43.898;2023-04-03T00:00:24;100821.16;;;3.54;77.32
70323;BME280;57735;56.264;43.898;2023-04-03T00:02:54;100817.28;;;3.60;77.68
70323;BME280;57735;56.264;43.898;2023-04-03T00:05:25;100813.44;;;3.65;77.63
70323;BME280;57735;56.264;43.898;2023-04-03T00:07:55;100815.88;;;3.68;77.33
70323;BME280;57735;56.264;43.898;2023-04-03T00:10:26;100810.03;;;3.63;77.01
70323;BME280;57735;56.264;43.898;2023-04-03T00:12:58;100818.13;;;3.60;76.92
70323;BME280;57735;56.264;43.898;2023-04-03T00:15:29;100814.75;;;3.58;77.10
70323;BME280;57735;56.264;43.898;2023-04-03T00:18:00;100813.16;;;3.56;77.37
70323;BME280;57735;56.264;43.898;2023-04-03T00:20:31;100811.38;;;3.56;77.32
70323;BME280;57735;56.264;43.898;2023-04-03T00:23:02;100821.06;;;3.56;77.33
70323;BME280;57735;56.264;43.898;2023-04-03T00:25:33;100813.34;;;3.53;77.09
70323;BME280;57735;56.264;43.898;2023-04-03T00:28:04;100810.09;;;3.49;76.93
70323;BME280;57735;56.264;43.898;2023-04-03T00:30:34;100817.53;;;3.42;76.67
70323;BME280;57735;56.264;43.898;2023-04-03T00:33:05;100825.09;;;3.34;76.98
70323;BME280;57735;56.264;43.898;2023-04-03T00:35:36;100823.66;;;3.29;77.35
70323;BME280;57735;56.264;43.898;2023-04-03T00:38:06;100822.16;;;3.25;77.08
70323;BME280;57735;56.264;43.898;2023-04-03T00:40:39;100820.66;;;3.21;77.00
70323;BME280;57735;56.264;43.898;2023-04-03T00:43:15;100818.34;;;3.16;77.02
70323;BME280;57735;56.264;43.898;2023-04-03T00:45:49;100812.50;;;3.11;77.20
70323;BME280;57735;56.264;43.898;2023-04-03T00:48:26;100804.69;;;3.09;77.23
70323;BME280;57735;56.264;43.898;2023-04-03T00:50:58;100809.94;;;3.09;77.32
70323;BME280;57735;56.264;43.898;2023-04-03T00:53:37;100809.09;;;3.09;77.13
70323;BME280;57735;56.264;43.898;2023-04-03T00:56:09;100821.69;;;3.04;77.07
70323;BME280;57735;56.264;43.898;2023-04-03T00:58:45;100819.47;;;2.98;77.47
70323;BME280;57735;56.264;43.898;2023-04-03T01:01:18;100816.16;;;2.94;77.68
70323;BME280;57735;56.264;43.898;2023-04-03T01:03:51;100814.66;;;2.90;77.85
70323;BME280;57735;56.264;43.898;2023-04-03T01:06:26;100827.06;;;2.88;77.85
70323;BME280;57735;56.264;43.898;2023-04-03T01:08:57;100821.97;;;2.85;77.94
70323;BME280;57735;56.264;43.898;2023-04-03T01:11:29;100830.09;;;2.82;77.83
70323;BME280;57735;56.264;43.898;2023-04-03T01:13:59;100816.16;;;2.80;77.81
70323;BME280;57735;56.264;43.898;2023-04-03T01:16:32;100813.63;;;2.78;77.83
70323;BME280;57735;56.264;43.898;2023-04-03T01:19:02;100812.78;;;2.78;77.94
70323;BME280;57735;56.264;43.898;2023-04-03T01:24:17;100811.28;;;2.74;77.85
70323;BME280;57735;56.264;43.898;2023-04-03T01:26:50;100821.03;;;2.72;77.96
70323;BME280;57735;56.264;43.898;2023-04-03T01:29:21;100816.72;;;2.71;78.07
70323;BME280;57735;56.264;43.898;2023-04-03T01:31:52;100817.66;;;2.70;78.17
70323;BME280;57735;56.264;43.898;2023-04-03T01:34:23;100816.06;;;2.67;77.82
70323;BME280;57735;56.264;43.898;2023-04-03T01:36:54;100808.38;;;2.64;77.91
70323;BME280;57735;56.264;43.898;2023-04-03T01:39:27;100818.03;;;2.64;78.08
70323;BME280;57735;56.264;43.898;2023-04-03T01:41:58;100816.16;;;2.66;78.62
70323;BME280;57735;56.264;43.898;2023-04-03T01:44:29;100815.22;;;2.67;78.60
70323;BME280;57735;56.264;43.898;2023-04-03T01:47:00;100817.88;;;2.67;78.35
70323;BME280;57735;56.264;43.898;2023-04-03T01:49:30;100814.16;;;2.69;78.55
70323;BME280;57735;56.264;43.898;2023-04-03T01:52:01;100817.38;;;2.74;78.89
70323;BME280;57735;56.264;43.898;2023-04-03T01:54:33;100816.94;;;2.82;79.17
70323;BME280;57735;56.264;43.898;2023-04-03T01:57:04;100820.19;;;2.86;79.20
70323;BME280;57735;56.264;43.898;2023-04-03T01:59:34;100806.00;;;2.88;79.34
70323;BME280;57735;56.264;43.898;2023-04-03T02:02:05;100805.72;;;2.93;79.35
70323;BME280;57735;56.264;43.898;2023-04-03T02:04:36;100807.34;;;2.95;79.21
70323;BME280;57735;56.264;43.898;2023-04-03T02:07:06;100800.09;;;2.99;79.56
70323;BME280;57735;56.264;43.898;2023-04-03T02:09:37;100803.94;;;3.07;79.66
70323;BME280;57735;56.264;43.898;2023-04-03T02:12:09;100810.63;;;3.13;79.33
70323;BME280;57735;56.264;43.898;2023-04-03T02:14:40;100813.69;;;3.20;79.07
70323;BME280;57735;56.264;43.898;2023-04-03T02:17:11;100810.88;;;3.23;79.05
70323;BME280;57735;56.264;43.898;2023-04-03T02:19:41;100805.41;;;3.26;79.11
70323;BME280;57735;56.264;43.898;2023-04-03T02:22:15;100802.69;;;3.27;79.03
70323;BME280;57735;56.264;43.898;2023-04-03T02:24:45;100807.09;;;3.27;78.54
70323;BME280;57735;56.264;43.898;2023-04-03T02:27:16;100802.88;;;3.24;78.26
70323;BME280;57735;56.264;43.898;2023-04-03T02:29:47;100805.41;;;3.26;78.24
70323;BME280;57735;56.264;43.898;2023-04-03T02:32:23;100810.59;;;3.27;78.19
70323;BME280;57735;56.264;43.898;2023-04-03T02:34:53;100813.22;;;3.27;77.92
70323;BME280;57735;56.264;43.898;2023-04-03T02:37:24;100808.81;;;3.28;77.89
70323;BME280;57735;56.264;43.898;2023-04-03T02:39:56;100814.06;;;3.28;78.02
70323;BME280;57735;56.264;43.898;2023-04-03T02:42:27;100809.66;;;3.28;78.25
70323;BME280;57735;56.264;43.898;2023-04-03T02:44:58;100811.25;;;3.31;78.30
70323;BME280;57735;56.264;43.898;2023-04-03T02:47:30;100806.72;;;3.33;78.29
70323;BME280;57735;56.264;43.898;2023-04-03T02:50:01;100811.69;;;3.37;78.74
70323;BME280;57735;56.264;43.898;2023-04-03T02:52:31;100807.06;;;3.41;78.56
70323;BME280;57735;56.264;43.898;2023-04-03T02:55:02;100811.41;;;3.42;78.38
70323;BME280;57735;56.264;43.898;2023-04-03T02:57:33;100810.38;;;3.44;78.40
70323;BME280;57735;56.264;43.898;2023-04-03T03:00:04;100808.59;;;3.45;78.02
70323;BME280;57735;56.264;43.898;2023-04-03T03:02:35;100805.94;;;3.45;77.94
70323;BME280;57735;56.264;43.898;2023-04-03T03:05:05;100814.78;;;3.44;78.21
70323;BME280;57735;56.264;43.898;2023-04-03T03:07:36;100814.59;;;3.47;78.29
70323;BME280;57735;56.264;43.898;2023-04-03T03:10:07;100817.06;;;3.50;78.10
70323;BME280;57735;56.264;43.898;2023-04-03T03:12:37;100822.09;;;3.53;78.10
70323;BME280;57735;56.264;43.898;2023-04-03T03:15:08;100815.78;;;3.56;77.96
70323;BME280;57735;56.264;43.898;2023-04-03T03:17:39;100808.72;;;3.56;77.77
70323;BME280;57735;56.264;43.898;2023-04-03T03:20:09;100818.34;;;3.57;77.88
70323;BME280;57735;56.264;43.898;2023-04-03T03:22:40;100817.94;;;3.63;78.03
70323;BME280;57735;56.264;43.898;2023-04-03T03:25:11;100813.25;;;3.68;77.58
70323;BME280;57735;56.264;43.898;2023-04-03T03:27:41;100818.50;;;3.68;77.69
70323;BME280;57735;56.264;43.898;2023-04-03T03:30:12;100814.91;;;3.69;77.61
70323;BME280;57735;56.264;43.898;2023-04-03T03:32:42;100821.66;;;3.73;77.59
70323;BME280;57735;56.264;43.898;2023-04-03T03:35:13;100818.84;;;3.76;77.52
70323;BME280;57735;56.264;43.898;2023-04-03T03:37:43;100826.38;;;3.82;77.47
70323;BME280;57735;56.264;43.898;2023-04-03T03:40:14;100815.50;;;3.87;77.75
70323;BME280;57735;56.264;43.898;2023-04-03T03:42:45;100813.31;;;3.94;77.64
70323;BME280;57735;56.264;43.898;2023-04-03T03:45:16;100820.19;;;3.96;77.15
70323;BME280;57735;56.264;43.898;2023-04-03T03:47:48;100815.56;;;4.00;77.09
70323;BME280;57735;56.264;43.898;2023-04-03T03:50:19;100821.44;;;4.03;76.81
70323;BME280;57735;56.264;43.898;2023-04-03T03:52:49;100819.56;;;4.05;76.53
70323;BME280;57735;56.264;43.898;2023-04-03T03:55:22;100821.16;;;4.08;76.32
70323;BME280;57735;56.264;43.898;2023-04-03T03:57:53;100820.13;;;4.10;76.37
70323;BME280;57735;56.264;43.898;2023-04-03T04:00:23;100809.38;;;4.13;76.13
70323;BME280;57735;56.264;43.898;2023-04-03T04:02:54;100821.41;;;4.17;76.00
70323;BME280;57735;56.264;43.898;2023-04-03T04:05:26;100818.44;;;4.22;76.01
70323;BME280;57735;56.264;43.898;2023-04-03T04:07:56;100813.81;;;4.26;75.86
70323;BME280;57735;56.264;43.898;2023-04-03T04:10:26;100814.25;;;4.32;75.75
70323;BME280;57735;56.264;43.898;2023-04-03T04:12:59;100811.19;;;4.38;75.64
70323;BME280;57735;56.264;43.898;2023-04-03T04:15:30;100802.88;;;4.44;75.44
70323;BME280;57735;56.264;43.898;2023-04-03T04:18:01;100809.53;;;4.50;75.45
70323;BME280;57735;56.264;43.898;2023-04-03T04:20:31;100809.09;;;4.56;75.21
70323;BME280;57735;56.264;43.898;2023-04-03T04:23:02;100805.09;;;4.63;74.88
70323;BME280;57735;56.264;43.898;2023-04-03T04:25:33;100804.66;;;4.69;74.87
70323;BME280;57735;56.264;43.898;2023-04-03T04:28:03;100803.19;;;4.78;74.70
70323;BME280;57735;56.264;43.898;2023-04-03T04:30:34;100811.31;;;4.87;74.52
70323;BME280;57735;56.264;43.898;2023-04-03T04:33:05;100805.63;;;4.94;73.95
70323;BME280;57735;56.264;43.898;2023-04-03T04:35:35;100795.47;;;5.00;73.83
70323;BME280;57735;56.264;43.898;2023-04-03T04:38:06;100797.56;;;5.08;73.32
70323;BME280;57735;56.264;43.898;2023-04-03T04:40:36;100811.19;;;5.14;73.18
70323;BME280;57735;56.264;43.898;2023-04-03T04:43:07;100803.91;;;5.18;72.99
70323;BME280;57735;56.264;43.898;2023-04-03T04:45:38;100809.56;;;5.24;72.94
70323;BME280;57735;56.264;43.898;2023-04-03T04:48:08;100800.47;;;5.29;72.79
70323;BME280;57735;56.264;43.898;2023-04-03T04:50:39;100809.69;;;5.36;72.61
70323;BME280;57735;56.264;43.898;2023-04-03T04:53:10;100806.56;;;5.42;72.59
70323;BME280;57735;56.264;43.898;2023-04-03T04:55:41;100807.09;;;5.47;72.66
70323;BME280;57735;56.264;43.898;2023-04-03T04:58:11;100806.78;;;5.51;72.44
70323;BME280;57735;56.264;43.898;2023-04-03T05:00:43;100808.97;;;5.57;72.49
70323;BME280;57735;56.264;43.898;2023-04-03T05:03:13;100818.03;;;5.66;72.52
70323;BME280;57735;56.264;43.898;2023-04-03T05:05:44;100810.38;;;5.74;72.20
70323;BME280;57735;56.264;43.898;2023-04-03T05:08:15;100807.06;;;5.83;71.92
70323;BME280;57735;56.264;43.898;2023-04-03T05:10:46;100803.88;;;5.91;71.57
70323;BME280;57735;56.264;43.898;2023-04-03T05:13:16;100807.53;;;6.01;71.31
70323;BME280;57735;56.264;43.898;2023-04-03T05:15:47;100810.34;;;6.11;71.34
70323;BME280;57735;56.264;43.898;2023-04-03T05:18:17;100809.78;;;6.18;70.92
70323;BME280;57735;56.264;43.898;2023-04-03T05:20:48;100809.69;;;6.31;70.73
70323;BME280;57735;56.264;43.898;2023-04-03T05:23:19;100819.34;;;6.43;70.45
70323;BME280;57735;56.264;43.898;2023-04-03T05:25:50;100807.59;;;6.58;70.13
70323;BME280;57735;56.264;43.898;2023-04-03T05:28:20;100805.22;;;6.67;70.08
70323;BME280;57735;56.264;43.898;2023-04-03T05:30:55;100809.66;;;6.77;69.98
70323;BME280;57735;56.264;43.898;2023-04-03T05:33:26;100802.56;;;6.89;69.74
70323;BME280;57735;56.264;43.898;2023-04-03T05:36:01;100818.38;;;7.02;69.52
70323;BME280;57735;56.264;43.898;2023-04-03T05:38:32;100808.59;;;7.13;69.08
70323;BME280;57735;56.264;43.898;2023-04-03T05:41:02;100803.03;;;7.27;68.83
70323;BME280;57735;56.264;43.898;2023-04-03T05:43:33;100806.16;;;7.44;68.69
70323;BME280;57735;56.264;43.898;2023-04-03T05:46:15;100805.16;;;7.56;68.40
70323;BME280;57735;56.264;43.898;2023-04-03T05:48:48;100810.34;;;7.68;67.50
70323;BME280;57735;56.264;43.898;2023-04-03T05:51:22;100806.69;;;7.81;67.61
70323;BME280;57735;56.264;43.898;2023-04-03T05:53:56;100807.47;;;7.92;66.88
70323;BME280;57735;56.264;43.898;2023-04-03T05:56:28;100809.09;;;8.04;67.20
70323;BME280;57735;56.264;43.898;2023-04-03T05:58:59;100817.66;;;8.08;66.53
70323;BME280;57735;56.264;43.898;2023-04-03T06:01:29;100817.03;;;8.16;66.00
70323;BME280;57735;56.264;43.898;2023-04-03T06:04:00;100815.28;;;8.26;65.88
70323;BME280;57735;56.264;43.898;2023-04-03T06:06:47;100811.63;;;8.38;65.94
70323;BME280;57735;56.264;43.898;2023-04-03T06:09:18;100813.41;;;8.49;65.52
70323;BME280;57735;56.264;43.898;2023-04-03T06:11:49;100817.94;;;8.58;64.60
70323;BME280;57735;56.264;43.898;2023-04-03T06:14:20;100814.50;;;8.67;65.04
70323;BME280;57735;56.264;43.898;2023-04-03T06:16:51;100813.84;;;8.74;64.34
70323;BME280;57735;56.264;43.898;2023-04-03T06:19:22;100811.75;;;8.78;63.87
70323;BME280;57735;56.264;43.898;2023-04-03T06:21:52;100813.06;;;8.84;63.54
70323;BME280;57735;56.264;43.898;2023-04-03T06:24:23;100810.56;;;8.92;63.68
70323;BME280;57735;56.264;43.898;2023-04-03T06:26:55;100813.44;;;9.00;63.31
70323;BME280;57735;56.264;43.898;2023-04-03T06:29:25;100812.88;;;9.06;63.00
70323;BME280;57735;56.264;43.898;2023-04-03T06:31:57;100812.09;;;9.15;62.83
70323;BME280;57735;56.264;43.898;2023-04-03T06:34:27;100812.97;;;9.25;62.39
70323;BME280;57735;56.264;43.898;2023-04-03T06:36:58;100807.97;;;9.32;61.44
70323;BME280;57735;56.264;43.898;2023-04-03T06:39:31;100805.88;;;9.35;60.14
70323;BME280;57735;56.264;43.898;2023-04-03T06:42:02;100802.38;;;9.44;60.65
70323;BME280;57735;56.264;43.898;2023-04-03T06:44:35;100801.59;;;9.54;60.40
70323;BME280;57735;56.264;43.898;2023-04-03T06:47:06;100801.84;;;9.60;59.49
70323;BME280;57735;56.264;43.898;2023-04-03T06:49:36;100805.94;;;9.74;59.43
70323;BME280;57735;56.264;43.898;2023-04-03T06:52:07;100806.53;;;9.87;59.63
70323;BME280;57735;56.264;43.898;2023-04-03T06:54:38;100795.63;;;10.00;58.91
70323;BME280;57735;56.264;43.898;2023-04-03T06:57:08;100808.22;;;10.07;57.63
70323;BME280;57735;56.264;43.898;2023-04-03T06:59:39;100806.41;;;10.18;57.69
70323;BME280;57735;56.264;43.898;2023-04-03T07:02:11;100805.84;;;10.24;57.19
70323;BME280;57735;56.264;43.898;2023-04-03T07:04:42;100810.34;;;10.33;57.16
70323;BME280;57735;56.264;43.898;2023-04-03T07:07:13;100805.16;;;10.41;56.81
70323;BME280;57735;56.264;43.898;2023-04-03T07:09:47;100815.13;;;10.48;56.02
70323;BME280;57735;56.264;43.898;2023-04-03T07:12:18;100799.81;;;10.41;55.99
70323;BME280;57735;56.264;43.898;2023-04-03T07:14:48;100801.50;;;10.42;56.08
70323;BME280;57735;56.264;43.898;2023-04-03T07:17:19;100813.72;;;10.44;56.42
70323;BME280;57735;56.264;43.898;2023-04-03T07:19:50;100810.19;;;10.44;56.46
70323;BME280;57735;56.264;43.898;2023-04-03T07:22:20;100824.50;;;10.53;56.24
70323;BME280;57735;56.264;43.898;2023-04-03T07:24:51;100808.63;;;10.61;55.82
70323;BME280;57735;56.264;43.898;2023-04-03T07:27:21;100812.28;;;10.69;56.04
70323;BME280;57735;56.264;43.898;2023-04-03T07:29:52;100809.16;;;10.83;55.80
70323;BME280;57735;56.264;43.898;2023-04-03T07:32:22;100810.09;;;10.92;54.63
70323;BME280;57735;56.264;43.898;2023-04-03T07:34:53;100811.06;;;11.01;54.52
70323;BME280;57735;56.264;43.898;2023-04-03T07:37:24;100812.41;;;11.14;54.50
70323;BME280;57735;56.264;43.898;2023-04-03T07:39:54;100814.03;;;11.25;53.18
70323;BME280;57735;56.264;43.898;2023-04-03T07:42:27;100816.53;;;11.36;53.00
70323;BME280;57735;56.264;43.898;2023-04-03T07:44:58;100823.94;;;11.42;52.13
70323;BME280;57735;56.264;43.898;2023-04-03T07:47:28;100811.25;;;11.54;52.03
70323;BME280;57735;56.264;43.898;2023-04-03T07:49:59;100818.34;;;11.63;51.67
70323;BME280;57735;56.264;43.898;2023-04-03T07:52:29;100817.50;;;11.63;52.03
70323;BME280;57735;56.264;43.898;2023-04-03T07:55:03;100819.47;;;11.61;51.43
70323;BME280;57735;56.264;43.898;2023-04-03T07:57:35;100818.50;;;11.62;52.06
70323;BME280;57735;56.264;43.898;2023-04-03T08:00:09;100811.56;;;11.69;51.90
70323;BME280;57735;56.264;43.898;2023-04-03T08:02:39;100813.63;;;11.75;51.72
70323;BME280;57735;56.264;43.898;2023-04-03T08:05:10;100816.81;;;11.88;51.61
70323;BME280;57735;56.264;43.898;2023-04-03T08:07:41;100816.59;;;11.99;51.32
70323;BME280;57735;56.264;43.898;2023-04-03T08:10:12;100815.81;;;12.07;50.64
70323;BME280;57735;56.264;43.898;2023-04-03T08:12:46;100816.66;;;12.07;49.81
70323;BME280;57735;56.264;43.898;2023-04-03T08:15:17;100820.03;;;12.09;50.08
70323;BME280;57735;56.264;43.898;2023-04-03T08:17:47;100815.06;;;12.14;49.77
70323;BME280;57735;56.264;43.898;2023-04-03T08:20:18;100817.97;;;12.21;48.98
70323;BME280;57735;56.264;43.898;2023-04-03T08:22:49;100819.03;;;12.28;49.19
70323;BME280;57735;56.264;43.898;2023-04-03T08:25:19;100821.28;;;12.41;48.99
70323;BME280;57735;56.264;43.898;2023-04-03T08:27:50;100827.34;;;12.43;48.06
70323;BME280;57735;56.264;43.898;2023-04-03T08:30:21;100819.16;;;12.44;48.01
70323;BME280;57735;56.264;43.898;2023-04-03T08:32:51;100818.56;;;12.50;47.85
70323;BME280;57735;56.264;43.898;2023-04-03T08:35:22;100824.09;;;12.57;47.51
70323;BME280;57735;56.264;43.898;2023-04-03T08:37:53;100828.53;;;12.66;47.42
70323;BME280;57735;56.264;43.898;2023-04-03T08:40:23;100828.22;;;12.69;47.88
70323;BME280;57735;56.264;43.898;2023-04-03T08:43:09;100816.72;;;12.77;47.37
70323;BME280;57735;56.264;43.898;2023-04-03T08:45:53;100818.72;;;12.75;46.57
70323;BME280;57735;56.264;43.898;2023-04-03T08:48:58;100821.19;;;12.68;46.72
70323;BME280;57735;56.264;43.898;2023-04-03T08:51:24;100814.53;;;12.72;46.93
70323;BME280;57735;56.264;43.898;2023-04-03T08:54:00;100820.47;;;12.84;47.14
70323;BME280;57735;56.264;43.898;2023-04-03T08:56:33;100816.66;;;12.94;46.70
70323;BME280;57735;56.264;43.898;2023-04-03T08:59:05;100813.06;;;13.04;46.14
70323;BME280;57735;56.264;43.898;2023-04-03T09:01:40;100824.34;;;13.15;46.32
70323;BME280;57735;56.264;43.898;2023-04-03T09:04:14;100811.84;;;13.24;45.77
70323;BME280;57735;56.264;43.898;2023-04-03T09:06:49;100812.88;;;13.31;44.97
70323;BME280;57735;56.264;43.898;2023-04-03T09:09:39;100816.56;;;13.30;44.55
70323;BME280;57735;56.264;43.898;2023-04-03T09:17:26;100815.47;;;13.49;44.47
70323;BME280;57735;56.264;43.898;2023-04-03T09:22:35;100820.69;;;13.58;44.24
70323;BME280;57735;56.264;43.898;2023-04-03T09:25:13;100816.03;;;13.69;44.76
70323;BME280;57735;56.264;43.898;2023-04-03T09:27:44;100817.41;;;13.73;43.43
70323;BME280;57735;56.264;43.898;2023-04-03T09:30:16;100825.78;;;13.78;44.11
70323;BME280;57735;56.264;43.898;2023-04-03T09:32:49;100821.41;;;13.77;44.10
70323;BME280;57735;56.264;43.898;2023-04-03T09:37:58;100821.09;;;13.80;43.88
70323;BME280;57735;56.264;43.898;2023-04-03T09:40:31;100822.13;;;13.87;43.56
70323;BME280;57735;56.264;43.898;2023-04-03T09:45:52;100827.66;;;13.85;41.92
70323;BME280;57735;56.264;43.898;2023-04-03T09:48:23;100825.66;;;13.87;42.15
70323;BME280;57735;56.264;43.898;2023-04-03T09:50:58;100826.97;;;13.91;41.62
70323;BME280;57735;56.264;43.898;2023-04-03T09:53:31;100826.69;;;14.03;41.36
70323;BME280;57735;56.264;43.898;2023-04-03T09:56:03;100818.47;;;14.12;40.91
70323;BME280;57735;56.264;43.898;2023-04-03T09:58:37;100828.69;;;14.25;40.71
70323;BME280;57735;56.264;43.898;2023-04-03T10:01:20;100832.09;;;14.43;40.78
70323;BME280;57735;56.264;43.898;2023-04-03T10:04:10;100822.22;;;14.52;40.16
70323;BME280;57735;56.264;43.898;2023-04-03T10:06:48;100826.91;;;14.74;40.97
70323;BME280;57735;56.264;43.898;2023-04-03T10:14:30;100816.41;;;15.12;39.84
70323;BME280;57735;56.264;43.898;2023-04-03T10:22:26;100816.09;;;15.07;39.67
70323;BME280;57735;56.264;43.898;2023-04-03T10:30:42;100805.00;;;15.10;39.71
70323;BME280;57735;56.264;43.898;2023-04-03T10:46:21;100811.91;;;15.51;38.55
70323;BME280;57735;56.264;43.898;2023-04-03T10:51:41;100797.47;;;15.44;39.42
70323;BME280;57735;56.264;43.898;2023-04-03T10:56:53;100798.13;;;15.46;38.52
70323;BME280;57735;56.264;43.898;2023-04-03T11:01:56;100797.84;;;15.41;38.38
70323;BME280;57735;56.264;43.898;2023-04-03T11:04:29;100799.38;;;15.35;38.93
70323;BME280;57735;56.264;43.898;2023-04-03T11:07:04;100796.19;;;15.32;39.85
70323;BME280;57735;56.264;43.898;2023-04-03T11:09:41;100783.09;;;15.29;38.99
70323;BME280;57735;56.264;43.898;2023-04-03T11:12:33;100793.19;;;15.27;39.00
70323;BME280;57735;56.264;43.898;2023-04-03T11:15:11;100795.00;;;15.34;39.20
70323;BME280;57735;56.264;43.898;2023-04-03T11:18:01;100789.81;;;15.33;39.15
70323;BME280;57735;56.264;43.898;2023-04-03T11:20:33;100787.13;;;15.33;38.92
70323;BME280;57735;56.264;43.898;2023-04-03T11:23:16;100798.22;;;15.30;39.61
70323;BME280;57735;56.264;43.898;2023-04-03T11:25:51;100780.75;;;15.26;39.72
70323;BME280;57735;56.264;43.898;2023-04-03T11:28:23;100784.16;;;15.20;39.66
70323;BME280;57735;56.264;43.898;2023-04-03T11:33:48;100780.19;;;15.08;39.97
70323;BME280;57735;56.264;43.898;2023-04-03T11:36:23;100785.06;;;15.04;39.41
70323;BME280;57735;56.264;43.898;2023-04-03T11:38:58;100775.16;;;15.05;39.64
70323;BME280;57735;56.264;43.898;2023-04-03T11:41:33;100768.06;;;15.12;40.21
70323;BME280;57735;56.264;43.898;2023-04-03T11:44:05;100770.38;;;15.23;39.41
70323;BME280;57735;56.264;43.898;2023-04-03T11:46:55;100766.31;;;15.27;38.98
70323;BME280;57735;56.264;43.898;2023-04-03T11:58:11;100756.66;;;15.10;39.64
70323;BME280;57735;56.264;43.898;2023-04-03T12:08:42;100750.09;;;15.20;38.70
70323;BME280;57735;56.264;43.898;2023-04-03T12:16:25;100740.34;;;15.50;38.51
70323;BME280;57735;56.264;43.898;2023-04-03T12:29:25;100745.50;;;15.29;37.21
70323;BME280;57735;56.264;43.898;2023-04-03T12:37:09;100739.47;;;15.27;38.40
70323;BME280;57735;56.264;43.898;2023-04-03T12:42:48;100725.66;;;15.38;37.49
70323;BME280;57735;56.264;43.898;2023-04-03T12:45:26;100732.81;;;15.46;37.99
70323;BME280;57735;56.264;43.898;2023-04-03T12:48:01;100743.63;;;15.38;38.49
70323;BME280;57735;56.264;43.898;2023-04-03T12:50:32;100737.41;;;15.37;38.58
70323;BME280;57735;56.264;43.898;2023-04-03T12:55:34;100737.44;;;15.29;38.39
70323;BME280;57735;56.264;43.898;2023-04-03T12:58:23;100730.06;;;15.31;38.26
70323;BME280;57735;56.264;43.898;2023-04-03T13:01:09;100739.97;;;15.30;38.07
70323;BME280;57735;56.264;43.898;2023-04-03T13:03:43;100728.44;;;15.22;38.54
70323;BME280;57735;56.264;43.898;2023-04-03T13:06:28;100741.88;;;15.14;38.36
70323;BME280;57735;56.264;43.898;2023-04-03T13:09:03;100737.19;;;15.16;39.01
70323;BME280;57735;56.264;43.898;2023-04-03T13:11:35;100735.81;;;15.20;38.44
70323;BME280;57735;56.264;43.898;2023-04-03T13:14:15;100733.91;;;15.28;38.70
70323;BME280;57735;56.264;43.898;2023-04-03T13:16:59;100736.06;;;15.41;38.05
70323;BME280;57735;56.264;43.898;2023-04-03T13:19:32;100728.94;;;15.48;37.68
70323;BME280;57735;56.264;43.898;2023-04-03T13:22:08;100734.00;;;15.43;37.48
70323;BME280;57735;56.264;43.898;2023-04-03T13:24:41;100731.25;;;15.59;38.01
70323;BME280;57735;56.264;43.898;2023-04-03T13:27:13;100733.25;;;15.65;37.53
70323;BME280;57735;56.264;43.898;2023-04-03T13:29:48;100738.44;;;15.67;36.95
70323;BME280;57735;56.264;43.898;2023-04-03T13:32:20;100736.25;;;15.70;37.51
70323;BME280;57735;56.264;43.898;2023-04-03T13:34:52;100730.69;;;15.72;37.30
70323;BME280;57735;56.264;43.898;2023-04-03T13:37:30;100744.97;;;15.73;37.29
70323;BME280;57735;56.264;43.898;2023-04-03T13:40:09;100727.66;;;15.75;37.18
70323;BME280;57735;56.264;43.898;2023-04-03T13:42:41;100734.56;;;15.69;37.43
70323;BME280;57735;56.264;43.898;2023-04-03T13:47:51;100729.97;;;15.47;37.38
70323;BME280;57735;56.264;43.898;2023-04-03T13:50:25;100726.34;;;15.32;37.93
70323;BME280;57735;56.264;43.898;2023-04-03T13:53:00;100733.75;;;15.30;38.12
70323;BME280;57735;56.264;43.898;2023-04-03T13:55:33;100728.94;;;15.17;37.94
70323;BME280;57735;56.264;43.898;2023-04-03T14:03:13;100735.22;;;15.01;38.57
70323;BME280;57735;56.264;43.898;2023-04-03T14:05:44;100732.09;;;14.90;39.58
70323;BME280;57735;56.264;43.898;2023-04-03T14:08:16;100730.94;;;14.76;39.07
70323;BME280;57735;56.264;43.898;2023-04-03T14:10:47;100731.81;;;14.60;39.61
70323;BME280;57735;56.264;43.898;2023-04-03T14:13:19;100732.84;;;14.43;39.32
70323;BME280;57735;56.264;43.898;2023-04-03T14:15:50;100735.84;;;14.32;39.64
70323;BME280;57735;56.264;43.898;2023-04-03T14:18:21;100736.53;;;14.26;39.54
70323;BME280;57735;56.264;43.898;2023-04-03T14:20:52;100737.72;;;14.23;39.80
70323;BME280;57735;56.264;43.898;2023-04-03T14:23:22;100735.88;;;14.24;39.73
70323;BME280;57735;56.264;43.898;2023-04-03T14:25:53;100739.88;;;14.20;39.52
70323;BME280;57735;56.264;43.898;2023-04-03T14:28:24;100731.66;;;14.13;39.71
70323;BME280;57735;56.264;43.898;2023-04-03T14:30:55;100732.00;;;14.10;40.31
70323;BME280;57735;56.264;43.898;2023-04-03T14:33:26;100734.69;;;14.10;39.90
70323;BME280;57735;56.264;43.898;2023-04-03T14:35:59;100732.84;;;14.03;39.58
70323;BME280;57735;56.264;43.898;2023-04-03T14:38:30;100740.56;;;13.97;40.61
70323;BME280;57735;56.264;43.898;2023-04-03T14:41:01;100741.19;;;13.91;39.63
70323;BME280;57735;56.264;43.898;2023-04-03T14:43:33;100743.41;;;13.88;40.06
70323;BME280;57735;56.264;43.898;2023-04-03T14:46:04;100743.06;;;13.83;40.14
70323;BME280;57735;56.264;43.898;2023-04-03T14:48:36;100745.38;;;13.78;40.25
70323;BME280;57735;56.264;43.898;2023-04-03T14:51:06;100741.53;;;13.72;40.43
70323;BME280;57735;56.264;43.898;2023-04-03T14:53:37;100729.31;;;13.70;40.52
70323;BME280;57735;56.264;43.898;2023-04-03T14:56:14;100737.34;;;13.70;40.73
70323;BME280;57735;56.264;43.898;2023-04-03T14:58:46;100738.84;;;13.64;40.96